Time;durP1;ratioP1;P1;durP2;ratioP2;P2;SDS_P1;SDS_P2;PMS_P1;PMS_P2;Temp;Humidity;BMP_temperature;BMP_pressure;BME280_temperature;BME280_humidity;BME280_pressure;Samples;Min_cycle;Max_cycle;Signal;HPM_P1;HPM_P2
2022/10/02 00:02:26;;;;;;;15.97;3.43;;;12.20;89.10;;;;;;5052470;28;20367;-49
2022/10/02 00:04:51;;;;;;;14.02;4.40;;;12.20;89.20;;;;;;5052099;28;20033;-48
2022/10/02 00:07:22;;;;;;;27.85;4.13;;;12.20;89.30;;;;;;5052867;28;20098;-47
2022/10/02 00:09:50;;;;;;;15.63;4.22;;;12.20;89.40;;;;;;5053994;28;20027;-46
2022/10/02 00:12:21;;;;;;;12.43;4.22;;;12.20;89.30;;;;;;5053813;28;20017;-46
2022/10/02 00:14:50;;;;;;;19.42;4.30;;;12.30;89.40;;;;;;5054117;28;20096;-48
2022/10/02 00:17:22;;;;;;;15.50;4.80;;;12.20;89.40;;;;;;5053858;28;20104;-46
2022/10/02 00:19:55;;;;;;;18.77;4.22;;;12.20;89.60;;;;;;5053905;28;20025;-48
2022/10/02 00:22:41;;;;;;;14.82;5.60;;;12.20;89.70;;;;;;5053795;28;20503;-48
2022/10/02 00:25:16;;;;;;;19.40;4.40;;;12.20;90.10;;;;;;5052359;28;20021;-47
2022/10/02 00:28:18;;;;;;;12.07;3.60;;;12.20;90.10;;;;;;5052717;28;20055;-48
2022/10/02 00:31:11;;;;;;;16.58;5.18;;;12.10;90.20;;;;;;5054231;28;20017;-47
2022/10/02 00:34:02;;;;;;;25.45;5.43;;;12.20;90.50;;;;;;5054051;28;20550;-47
2022/10/02 00:36:30;;;;;;;20.13;4.53;;;12.20;90.70;;;;;;5053644;28;20432;-47
2022/10/02 00:39:14;;;;;;;20.63;5.15;;;12.30;90.60;;;;;;5053120;28;20114;-46
2022/10/02 00:42:05;;;;;;;14.00;3.95;;;12.30;90.60;;;;;;5053534;28;20018;-46
2022/10/02 00:44:33;;;;;;;16.40;4.10;;;12.40;90.50;;;;;;5053387;28;20033;-46
2022/10/02 00:47:06;;;;;;;21.67;4.75;;;12.50;90.50;;;;;;5053142;28;20025;-46
2022/10/02 00:49:53;;;;;;;26.42;5.15;;;12.40;90.50;;;;;;5053498;28;20028;-47
2022/10/02 00:52:44;;;;;;;22.75;4.72;;;12.30;90.60;;;;;;5053056;28;20488;-46
2022/10/02 00:55:50;;;;;;;27.10;4.88;;;12.40;91.00;;;;;;5053072;28;20025;-47
2022/10/02 00:58:41;;;;;;;27.65;6.85;;;12.40;90.80;;;;;;5053357;28;20029;-46
2022/10/02 01:01:18;;;;;;;10.50;4.32;;;12.40;91.20;;;;;;5052817;28;20024;-47
2022/10/02 01:03:52;;;;;;;21.45;5.35;;;12.40;91.10;;;;;;5053167;28;20025;-47
2022/10/02 01:06:18;;;;;;;22.48;5.53;;;12.40;91.30;;;;;;5053096;28;20028;-47
2022/10/02 01:08:44;;;;;;;31.63;8.00;;;12.50;91.20;;;;;;5053095;28;20057;-47
2022/10/02 01:11:12;;;;;;;21.48;5.18;;;12.60;91.10;;;;;;5052706;28;20496;-46
2022/10/02 01:13:38;;;;;;;19.77;5.53;;;12.70;90.80;;;;;;5052842;28;20017;-49
2022/10/02 01:16:10;;;;;;;24.25;7.07;;;12.70;90.70;;;;;;5034816;28;20112;-46
2022/10/02 01:18:36;;;;;;;15.90;5.18;;;12.70;90.90;;;;;;5052876;28;20100;-49
2022/10/02 01:21:10;;;;;;;16.92;4.43;;;12.70;90.80;;;;;;5052615;28;20124;-46
2022/10/02 01:23:46;;;;;;;26.52;4.63;;;12.70;90.90;;;;;;5052526;28;20033;-46
2022/10/02 01:26:12;;;;;;;18.65;4.57;;;12.80;90.80;;;;;;5053045;28;20048;-47
2022/10/02 01:28:38;;;;;;;14.50;3.85;;;12.80;90.80;;;;;;5052330;28;20049;-47
2022/10/02 01:31:09;;;;;;;29.00;5.82;;;12.80;90.70;;;;;;5052563;28;20532;-46
2022/10/02 01:33:36;;;;;;;12.82;4.05;;;12.80;90.60;;;;;;5052955;28;20017;-46
2022/10/02 01:36:03;;;;;;;20.40;4.13;;;12.80;90.70;;;;;;5052840;28;20418;-45
2022/10/02 01:38:30;;;;;;;19.08;5.53;;;12.80;90.70;;;;;;5052563;28;20029;-45
2022/10/02 01:40:56;;;;;;;16.85;5.32;;;12.70;90.80;;;;;;5052696;28;20112;-46
2022/10/02 01:43:34;;;;;;;21.20;4.57;;;12.70;91.20;;;;;;5052647;28;20100;-46
2022/10/02 01:46:17;;;;;;;29.63;6.03;;;12.70;91.50;;;;;;5052547;28;20040;-45
2022/10/02 01:48:55;;;;;;;26.15;3.92;;;12.70;91.70;;;;;;5052782;28;20527;-46
2022/10/02 01:51:45;;;;;;;29.50;6.05;;;12.70;91.70;;;;;;5056792;28;20052;-47
2022/10/02 01:54:40;;;;;;;24.90;6.53;;;12.60;91.70;;;;;;5056725;28;20096;-46
2022/10/02 01:57:18;;;;;;;25.40;4.68;;;12.60;92.00;;;;;;5056617;28;20029;-46
2022/10/02 01:59:59;;;;;;;29.08;4.97;;;12.60;92.10;;;;;;5056724;28;20078;-47
2022/10/02 02:02:27;;;;;;;22.08;4.97;;;12.60;92.20;;;;;;5056431;28;20422;-47
2022/10/02 02:05:17;;;;;;;26.52;5.10;;;12.50;92.30;;;;;;5056260;28;20027;-53
2022/10/02 02:08:06;;;;;;;27.45;5.07;;;12.50;92.60;;;;;;5056351;28;20033;-48
2022/10/02 02:10:53;;;;;;;21.42;5.25;;;12.40;92.60;;;;;;5056404;28;20040;-46
2022/10/02 02:13:29;;;;;;;33.42;6.28;;;12.40;92.70;;;;;;5056587;28;20032;-46
2022/10/02 02:16:12;;;;;;;31.83;6.40;;;12.40;92.90;;;;;;5056328;28;20021;-47
2022/10/02 02:19:01;;;;;;;28.88;5.60;;;12.40;93.00;;;;;;5056161;28;20036;-47
2022/10/02 02:21:36;;;;;;;31.08;8.40;;;12.40;93.00;;;;;;5056085;28;20028;-46
2022/10/02 02:24:06;;;;;;;35.53;8.48;;;12.40;93.20;;;;;;5056090;28;20097;-47
2022/10/02 02:26:32;;;;;;;28.52;6.45;;;12.40;93.30;;;;;;5054489;28;20025;-47
2022/10/02 02:29:05;;;;;;;33.92;6.72;;;12.50;93.40;;;;;;5055664;28;20523;-46
2022/10/02 02:31:46;;;;;;;16.23;6.15;;;12.50;93.30;;;;;;5055004;28;20021;-46
2022/10/02 02:34:16;;;;;;;33.35;7.65;;;12.50;93.40;;;;;;5055785;28;20032;-53
2022/10/02 02:36:44;;;;;;;24.50;5.60;;;12.50;93.30;;;;;;5056024;28;20449;-46
2022/10/02 02:39:17;;;;;;;28.38;6.10;;;12.40;93.30;;;;;;5055734;28;20036;-46
2022/10/02 02:41:51;;;;;;;27.00;5.65;;;12.40;93.40;;;;;;5054802;28;20108;-46
2022/10/02 02:44:26;;;;;;;37.47;6.97;;;12.50;93.60;;;;;;5055503;28;20029;-47
2022/10/02 02:47:02;;;;;;;22.17;5.68;;;12.50;93.60;;;;;;5056200;28;20091;-47
2022/10/02 02:49:31;;;;;;;37.30;7.45;;;12.70;93.60;;;;;;5055413;28;20119;-51
2022/10/02 02:52:02;;;;;;;28.38;6.05;;;12.70;93.50;;;;;;5055697;28;20028;-47
2022/10/02 02:54:49;;;;;;;34.65;6.40;;;12.70;93.40;;;;;;5055601;28;20429;-47
2022/10/02 02:57:21;;;;;;;25.30;5.35;;;12.70;93.50;;;;;;5055579;28;20408;-47
2022/10/02 02:59:49;;;;;;;36.50;5.40;;;12.80;93.40;;;;;;5055516;28;20025;-47
2022/10/02 03:02:15;;;;;;;36.30;6.88;;;12.80;93.40;;;;;;5055434;28;20465;-47
2022/10/02 03:04:41;;;;;;;30.92;5.53;;;12.80;93.30;;;;;;5058460;28;20021;-46
2022/10/02 03:07:13;;;;;;;23.90;5.57;;;12.80;93.40;;;;;;5061916;28;20021;-47
2022/10/02 03:09:39;;;;;;;24.25;6.18;;;12.80;93.50;;;;;;5060528;28;20114;-46
2022/10/02 03:12:32;;;;;;;27.65;5.07;;;12.80;93.40;;;;;;5055882;28;20381;-47
2022/10/02 03:15:15;;;;;;;19.13;4.57;;;12.80;93.40;;;;;;5055001;28;20104;-46
2022/10/02 03:18:06;;;;;;;38.22;7.18;;;12.80;93.40;;;;;;5055922;28;20089;-48
2022/10/02 03:20:40;;;;;;;32.40;7.63;;;12.80;93.50;;;;;;5057437;28;20033;-49
2022/10/02 03:23:26;;;;;;;25.27;5.15;;;12.90;93.40;;;;;;5054819;28;20068;-47
2022/10/02 03:25:58;;;;;;;30.77;8.18;;;12.90;93.40;;;;;;5053659;28;20538;-46
2022/10/02 03:28:35;;;;;;;31.60;5.68;;;12.90;93.30;;;;;;5055019;28;20090;-45
2022/10/02 03:31:02;;;;;;;36.70;7.82;;;12.90;93.30;;;;;;5054991;28;20040;-47
2022/10/02 03:33:31;;;;;;;33.22;6.53;;;13.00;93.20;;;;;;5053737;28;20021;-46
2022/10/02 03:35:57;;;;;;;27.15;7.53;;;12.90;93.30;;;;;;5054444;28;20136;-48
2022/10/02 03:38:24;;;;;;;28.55;5.72;;;12.90;93.40;;;;;;5053743;28;20021;-46
2022/10/02 03:40:53;;;;;;;22.20;7.82;;;12.90;93.30;;;;;;5054734;28;20044;-47
2022/10/02 03:43:23;;;;;;;33.47;5.55;;;12.90;93.40;;;;;;5053474;28;20115;-47
2022/10/02 03:45:49;;;;;;;32.45;5.32;;;12.80;93.40;;;;;;5054338;28;20025;-48
2022/10/02 03:48:16;;;;;;;38.05;6.80;;;12.90;93.50;;;;;;5054172;28;20048;-49
2022/10/02 03:50:42;;;;;;;27.02;5.65;;;12.90;93.50;;;;;;5054193;28;20033;-46
2022/10/02 03:53:16;;;;;;;23.35;4.80;;;12.90;93.60;;;;;;5054396;28;20037;-47
2022/10/02 03:55:46;;;;;;;22.83;4.60;;;12.80;93.60;;;;;;5054071;28;20473;-47
2022/10/02 03:58:17;;;;;;;30.65;6.72;;;12.90;93.60;;;;;;5052883;28;20059;-46
2022/10/02 04:00:55;;;;;;;26.45;5.53;;;12.80;93.60;;;;;;5054538;28;20037;-47
2022/10/02 04:03:29;;;;;;;37.45;5.82;;;12.80;93.60;;;;;;5054285;28;20029;-46
2022/10/02 04:06:08;;;;;;;26.30;5.82;;;12.90;93.80;;;;;;5052844;28;20043;-46
2022/10/02 04:08:39;;;;;;;22.80;4.80;;;12.90;93.70;;;;;;5053909;28;20047;-46
2022/10/02 04:11:17;;;;;;;32.72;8.25;;;12.90;93.80;;;;;;5053670;28;20083;-46
2022/10/02 04:13:46;;;;;;;29.63;4.95;;;12.90;93.80;;;;;;5053535;28;20036;-47
2022/10/02 04:16:20;;;;;;;38.50;5.97;;;13.00;93.80;;;;;;5053729;28;20021;-46
2022/10/02 04:18:59;;;;;;;35.55;7.20;;;13.10;93.80;;;;;;5053686;28;20025;-50
2022/10/02 04:21:43;;;;;;;30.83;5.85;;;13.10;93.70;;;;;;5053984;28;20032;-47
2022/10/02 04:24:17;;;;;;;35.42;7.75;;;13.20;93.60;;;;;;5053582;28;20503;-48
2022/10/02 04:26:53;;;;;;;29.75;5.25;;;13.20;93.50;;;;;;5053498;28;20029;-46
2022/10/02 04:29:24;;;;;;;34.45;7.60;;;13.20;93.50;;;;;;5053636;28;20124;-46
2022/10/02 04:31:56;;;;;;;32.17;5.70;;;13.20;93.50;;;;;;5053477;28;20036;-47
2022/10/02 04:34:21;;;;;;;35.38;7.72;;;13.30;93.50;;;;;;5053682;28;20099;-48
2022/10/02 04:37:05;;;;;;;54.15;6.75;;;13.30;93.40;;;;;;5053690;28;20496;-46
2022/10/02 04:40:06;;;;;;;32.55;8.43;;;13.30;93.20;;;;;;5053336;28;20140;-46
2022/10/02 04:42:52;;;;;;;28.50;5.65;;;13.40;93.10;;;;;;5051978;28;20083;-46
2022/10/02 04:45:39;;;;;;;36.30;7.80;;;13.30;93.10;;;;;;5053385;28;20468;-47
2022/10/02 04:48:31;;;;;;;22.08;6.30;;;13.30;93.20;;;;;;5053317;28;20166;-49
2022/10/02 04:51:11;;;;;;;33.53;6.85;;;13.30;93.30;;;;;;5053350;28;20040;-48
2022/10/02 04:53:58;;;;;;;32.17;9.02;;;13.30;93.40;;;;;;5053078;28;20493;-47
2022/10/02 04:56:44;;;;;;;31.85;6.65;;;13.30;93.30;;;;;;5053039;28;20103;-46
2022/10/02 04:59:47;;;;;;;28.75;6.72;;;13.30;93.40;;;;;;5051723;28;20055;-47
2022/10/02 05:02:47;;;;;;;31.92;6.53;;;13.20;93.30;;;;;;5053168;28;20353;-46
2022/10/02 05:05:51;;;;;;;27.40;6.03;;;13.20;93.40;;;;;;5053185;28;20032;-46
2022/10/02 05:08:28;;;;;;;29.00;5.13;;;13.20;93.30;;;;;;5052485;28;20042;-47
2022/10/02 05:11:18;;;;;;;26.77;7.35;;;13.20;93.40;;;;;;5052951;28;20025;-46
2022/10/02 05:13:46;;;;;;;34.90;8.50;;;13.20;93.30;;;;;;5053229;28;20030;-50
2022/10/02 05:16:31;;;;;;;30.30;5.60;;;13.20;93.20;;;;;;5052922;28;20021;-46
2022/10/02 05:19:05;;;;;;;37.85;6.75;;;13.20;93.20;;;;;;5052917;28;20036;-46
2022/10/02 17:27:41;;;;;;;10.75;3.40;;;13.80;74.10;;;;;;5111199;27;20109;-48
2022/10/02 17:30:26;;;;;;;9.60;2.45;;;13.80;74.50;;;;;;5110339;28;20040;-48
2022/10/02 17:33:14;;;;;;;10.90;2.70;;;13.90;74.20;;;;;;5110797;28;20027;-47
2022/10/02 17:35:55;;;;;;;6.88;2.75;;;13.90;74.30;;;;;;5110696;28;20357;-47
2022/10/02 17:38:24;;;;;;;11.27;3.85;;;13.90;74.40;;;;;;5110188;28;20028;-49
2022/10/02 17:41:08;;;;;;;8.38;2.08;;;13.90;74.20;;;;;;5111023;28;20023;-49
2022/10/02 17:43:49;;;;;;;9.80;3.05;;;13.90;74.30;;;;;;5110179;28;20019;-48
2022/10/02 17:46:17;;;;;;;10.30;3.33;;;14.00;74.40;;;;;;5110078;28;20059;-47
2022/10/02 17:49:06;;;;;;;11.40;3.08;;;13.90;74.50;;;;;;5110562;28;20043;-47
2022/10/02 17:56:26;;;;;;;8.30;2.25;;;13.80;74.90;;;;;;5110142;28;20024;-48
2022/10/02 17:58:05;;;;;;;8.20;2.30;;;13.80;75.10;;;;;;5110559;28;20027;-48
2022/10/02 18:00:36;;;;;;;19.73;2.60;;;13.60;75.40;;;;;;5110204;28;20028;-48
2022/10/02 18:03:20;;;;;;;11.93;3.42;;;13.70;75.60;;;;;;5110350;28;20348;-48
2022/10/02 18:05:49;;;;;;;11.88;4.18;;;13.50;76.10;;;;;;5110034;28;20035;-46
2022/10/02 18:08:34;;;;;;;14.63;2.90;;;13.60;76.10;;;;;;5108576;28;20053;-48
2022/10/02 18:11:04;;;;;;;10.30;3.67;;;13.50;76.40;;;;;;5109901;28;20024;-48
2022/10/02 18:13:44;;;;;;;21.77;3.70;;;13.50;76.80;;;;;;5109798;28;20020;-48
2022/10/02 18:16:49;;;;;;;6.22;2.53;;;13.50;77.00;;;;;;5109815;28;20028;-47
2022/10/02 18:19:23;;;;;;;9.65;2.40;;;13.50;76.80;;;;;;5047093;28;20032;-49
2022/10/02 18:21:52;;;;;;;11.00;3.08;;;13.40;77.40;;;;;;5100786;28;20043;-48
2022/10/02 18:24:43;;;;;;;13.02;4.53;;;13.30;77.90;;;;;;5109636;28;20031;-49
2022/10/02 18:27:08;;;;;;;;;;;13.30;78.50;;;;;;5108731;28;20050;-48
2022/10/02 18:29:58;;;;;;;10.43;2.92;;;13.20;78.50;;;;;;5109996;28;20006;-48
2022/10/02 18:32:26;;;;;;;16.20;5.85;;;13.20;78.80;;;;;;5109883;28;20038;-48
2022/10/02 18:35:21;;;;;;;13.25;2.65;;;13.10;79.00;;;;;;5108307;28;20027;-49
2022/10/02 18:37:56;;;;;;;12.32;2.45;;;13.00;79.40;;;;;;5101857;28;20074;-47
2022/10/02 18:40:47;;;;;;;9.88;2.80;;;13.00;80.00;;;;;;5095906;28;20460;-48
2022/10/02 18:43:32;;;;;;;7.45;2.03;;;12.90;80.10;;;;;;5096537;28;20337;-48
2022/10/02 18:45:58;;;;;;;8.77;2.38;;;12.90;80.40;;;;;;5095792;28;20039;-47
2022/10/02 18:49:01;;;;;;;10.18;3.30;;;12.90;80.10;;;;;;5095321;28;20024;-48
2022/10/02 18:51:27;;;;;;;8.35;3.05;;;12.90;80.30;;;;;;5095508;28;20021;-49
2022/10/02 18:54:19;;;;;;;7.60;2.25;;;12.90;80.50;;;;;;5094031;28;20024;-47
2022/10/02 18:57:07;;;;;;;8.80;2.53;;;12.80;80.70;;;;;;5095659;28;20162;-51
2022/10/02 18:59:35;;;;;;;14.15;3.50;;;12.70;81.00;;;;;;5095728;28;20031;-48
2022/10/02 19:02:09;;;;;;;10.38;2.97;;;12.60;81.40;;;;;;5094204;28;20039;-48
2022/10/02 19:04:35;;;;;;;9.00;2.60;;;12.60;81.60;;;;;;5095322;28;20035;-47
2022/10/02 19:07:21;;;;;;;10.32;3.47;;;12.50;82.00;;;;;;5094919;28;20020;-48
2022/10/02 19:09:51;;;;;;;15.90;3.45;;;12.60;81.90;;;;;;5095056;28;20024;-49
2022/10/02 19:12:22;;;;;;;10.32;2.53;;;12.50;81.70;;;;;;5095630;28;20024;-50
2022/10/02 19:14:53;;;;;;;9.70;3.00;;;12.60;81.80;;;;;;5095281;28;20154;-50
2022/10/02 19:17:28;;;;;;;12.88;2.95;;;12.50;81.60;;;;;;5095155;28;20020;-48
2022/10/02 19:19:55;;;;;;;15.73;6.53;;;12.50;81.60;;;;;;5095299;28;20027;-47
2022/10/02 19:22:31;;;;;;;15.43;2.53;;;12.50;81.80;;;;;;5095164;28;20080;-48
2022/10/02 19:25:05;;;;;;;11.30;2.78;;;12.50;81.90;;;;;;5095157;28;20061;-48
2022/10/02 19:27:34;;;;;;;14.05;3.28;;;12.40;82.00;;;;;;5095009;28;20120;-49
2022/10/02 19:30:03;;;;;;;13.15;3.90;;;12.50;81.50;;;;;;5095259;28;20039;-49
2022/10/02 19:32:42;;;;;;;20.58;8.30;;;12.40;81.70;;;;;;5095237;28;20020;-48
2022/10/02 19:35:17;;;;;;;11.35;4.30;;;12.40;82.00;;;;;;5094818;28;20024;-47
2022/10/02 19:37:45;;;;;;;12.00;3.42;;;12.30;81.90;;;;;;5095166;28;20107;-47
2022/10/02 19:40:30;;;;;;;12.90;3.28;;;12.30;82.10;;;;;;5094932;28;20115;-48
2022/10/02 19:43:16;;;;;;;9.95;2.92;;;12.30;82.40;;;;;;5094875;28;20056;-48
2022/10/02 19:45:50;;;;;;;15.70;3.53;;;12.30;82.20;;;;;;5095833;28;20035;-46
2022/10/02 19:48:17;;;;;;;12.88;3.33;;;12.30;82.00;;;;;;5094548;28;20016;-48
2022/10/02 19:50:50;;;;;;;13.13;3.95;;;12.30;82.10;;;;;;5094060;28;20016;-48
2022/10/02 19:53:38;;;;;;;6.18;2.97;;;12.20;82.20;;;;;;5094655;28;20079;-49
2022/10/02 19:56:14;;;;;;;19.45;3.75;;;12.20;82.40;;;;;;5083905;28;20032;-48
2022/10/02 19:58:58;;;;;;;15.65;3.97;;;12.20;82.30;;;;;;5094341;28;20107;-48
2022/10/02 20:01:36;;;;;;;7.55;2.63;;;12.20;82.40;;;;;;5093014;28;20028;-49
2022/10/02 20:04:04;;;;;;;10.55;3.25;;;12.10;82.50;;;;;;5093380;28;20125;-48
2022/10/02 20:06:36;;;;;;;10.13;3.03;;;12.10;82.80;;;;;;5094138;28;20361;-48
2022/10/02 20:09:15;;;;;;;7.45;4.28;;;12.00;83.10;;;;;;5094246;28;20043;-51
2022/10/02 20:12:03;;;;;;;9.40;2.20;;;12.00;83.30;;;;;;5094274;28;20364;-52
2022/10/02 20:14:41;;;;;;;9.00;2.85;;;12.10;83.20;;;;;;5093964;28;20016;-47
2022/10/02 20:17:11;;;;;;;18.95;4.32;;;12.10;83.20;;;;;;5094811;28;20043;-49
2022/10/02 20:19:47;;;;;;;15.82;3.50;;;12.00;83.40;;;;;;5093892;28;20051;-47
2022/10/02 20:22:27;;;;;;;12.60;3.67;;;11.80;83.80;;;;;;5094336;28;20081;-53
2022/10/02 20:25:08;;;;;;;;;;;11.90;83.70;;;;;;5094830;28;20035;-48
2022/10/02 20:27:50;;;;;;;14.77;4.43;;;11.80;83.80;;;;;;5094026;28;20364;-48
2022/10/02 20:30:19;;;;;;;10.65;3.17;;;11.70;84.50;;;;;;5094083;28;20035;-49
2022/10/02 20:33:01;;;;;;;18.17;3.83;;;11.70;84.80;;;;;;5094015;28;20077;-48
2022/10/02 20:35:34;;;;;;;13.02;2.83;;;11.70;84.70;;;;;;5093749;28;20020;-50
2022/10/02 20:38:20;;;;;;;15.07;4.35;;;11.60;84.90;;;;;;5093849;28;20027;-47
2022/10/02 20:40:52;;;;;;;15.10;3.25;;;11.60;84.90;;;;;;5093557;28;20023;-49
2022/10/02 20:44:00;;;;;;;15.40;3.85;;;11.70;85.30;;;;;;5092549;28;20448;-48
2022/10/02 20:47:09;;;;;;;13.93;2.95;;;11.70;85.20;;;;;;5031446;28;20409;-48
2022/10/02 20:50:22;;;;;;;9.10;2.63;;;11.70;84.90;;;;;;5093705;28;20028;-49
2022/10/02 20:53:19;;;;;;;17.50;4.95;;;11.60;85.20;;;;;;5093703;28;20016;-48
2022/10/02 20:55:55;;;;;;;13.02;2.80;;;11.60;84.90;;;;;;5093616;28;20024;-53
2022/10/02 20:58:42;;;;;;;9.40;3.03;;;11.60;85.20;;;;;;5093902;28;20103;-47
2022/10/02 21:01:17;;;;;;;14.43;2.20;;;11.50;85.40;;;;;;5093853;28;20094;-48
2022/10/02 21:03:58;;;;;;;12.32;3.28;;;11.40;85.80;;;;;;5093638;28;20058;-48
2022/10/02 21:06:38;;;;;;;9.52;5.43;;;11.40;86.00;;;;;;5093834;28;20028;-40
2022/10/02 21:09:23;;;;;;;;;;;11.30;86.40;;;;;;5094284;28;20058;-40
2022/10/02 21:11:53;;;;;;;8.82;2.65;;;11.30;86.90;;;;;;5093229;28;19904;-48
2022/10/02 21:14:38;;;;;;;16.27;3.25;;;11.20;86.80;;;;;;5093403;28;20085;-49
2022/10/02 21:17:40;;;;;;;9.60;3.55;;;11.10;87.10;;;;;;5093794;28;20518;-47
2022/10/02 21:20:30;;;;;;;9.77;2.40;;;11.00;87.60;;;;;;5092893;28;20039;-39
2022/10/02 21:23:18;;;;;;;14.18;4.90;;;11.00;87.90;;;;;;5091877;28;20434;-39
2022/10/02 21:26:04;;;;;;;14.88;3.33;;;11.00;87.60;;;;;;5099763;28;20040;-39
2022/10/02 21:28:42;;;;;;;16.90;3.03;;;11.00;87.60;;;;;;5114236;28;20566;-47
2022/10/02 21:31:41;;;;;;;7.40;3.20;;;11.10;87.60;;;;;;5113702;28;20023;-47
2022/10/02 21:34:37;;;;;;;12.68;2.65;;;11.00;87.60;;;;;;5113196;28;20490;-41
2022/10/02 21:37:29;;;;;;;12.40;2.97;;;11.10;87.70;;;;;;5113251;28;20020;-41
2022/10/02 21:40:20;;;;;;;17.92;3.25;;;11.10;87.60;;;;;;5113590;28;20115;-38
2022/10/02 21:43:16;;;;;;;14.00;3.20;;;11.10;87.40;;;;;;5113308;28;20103;-39
2022/10/02 21:46:00;;;;;;;12.63;3.88;;;11.10;87.50;;;;;;5094743;28;20046;-38
2022/10/02 21:48:29;;;;;;;13.30;3.28;;;11.10;87.60;;;;;;5113088;28;20106;-39
2022/10/02 21:51:22;;;;;;;11.02;2.90;;;11.10;87.60;;;;;;5094531;28;20032;-40
2022/10/02 21:54:03;;;;;;;13.93;3.35;;;11.10;87.60;;;;;;5113185;28;20527;-39
2022/10/02 21:56:51;;;;;;;14.70;2.95;;;11.10;87.60;;;;;;5113155;28;20020;-38
2022/10/02 21:59:19;;;;;;;15.57;5.25;;;11.10;87.60;;;;;;5113123;28;20027;-38
2022/10/02 22:02:02;;;;;;;15.05;3.67;;;11.10;87.80;;;;;;5113036;28;20046;-39
2022/10/02 22:04:53;;;;;;;19.52;4.82;;;11.10;87.80;;;;;;5094996;28;20355;-38
2022/10/02 22:07:42;;;;;;;23.67;3.97;;;11.00;87.90;;;;;;5113155;28;20452;-39
2022/10/02 22:10:25;;;;;;;9.67;2.83;;;11.00;88.10;;;;;;5094915;28;20024;-39
2022/10/02 22:13:12;;;;;;;9.40;2.97;;;10.80;88.20;;;;;;5096248;28;20028;-38
2022/10/02 22:15:53;;;;;;;9.20;3.45;;;10.70;88.70;;;;;;5117512;28;20023;-39
2022/10/02 22:18:39;;;;;;;14.32;3.53;;;10.50;88.90;;;;;;5116926;28;20467;-39
2022/10/02 22:21:45;;;;;;;12.02;2.72;;;10.40;88.90;;;;;;5117443;28;20023;-38
2022/10/02 22:24:33;;;;;;;16.77;4.07;;;10.30;89.40;;;;;;5116857;28;20049;-40
2022/10/02 22:27:08;;;;;;;17.88;5.25;;;10.30;89.70;;;;;;5098051;28;20499;-39
2022/10/02 22:29:54;;;;;;;12.95;3.33;;;10.20;89.70;;;;;;5116676;28;20015;-38
2022/10/02 22:33:09;;;;;;;15.95;3.38;;;10.30;89.90;;;;;;5098701;28;20020;-39
2022/10/02 22:36:11;;;;;;;7.57;3.97;;;10.20;89.80;;;;;;5098461;28;20183;-39
2022/10/02 22:38:44;;;;;;;15.48;4.70;;;10.10;90.00;;;;;;5101303;28;20480;-38
2022/10/02 22:41:33;;;;;;;13.55;4.00;;;10.20;90.20;;;;;;5098345;28;20027;-38
2022/10/02 22:44:20;;;;;;;15.95;4.13;;;10.20;90.50;;;;;;5098470;28;20110;-39
2022/10/02 22:46:54;;;;;;;17.38;4.50;;;10.10;90.30;;;;;;5116527;28;20035;-39
2022/10/02 22:49:30;;;;;;;11.27;3.80;;;10.20;90.40;;;;;;5098544;28;20024;-39
2022/10/02 22:51:58;;;;;;;12.07;3.88;;;10.10;90.50;;;;;;5098420;28;20027;-39
2022/10/02 22:55:04;;;;;;;16.27;3.85;;;10.20;90.70;;;;;;5098284;28;20020;-38
2022/10/02 22:57:58;;;;;;;18.33;5.22;;;10.20;90.60;;;;;;5098181;28;20019;-39
2022/10/02 23:00:35;;;;;;;11.00;3.70;;;10.20;90.40;;;;;;5081621;28;20085;-39
2022/10/02 23:03:14;;;;;;;15.77;3.42;;;10.10;90.40;;;;;;5116337;28;20070;-38
2022/10/02 23:05:50;;;;;;;14.05;3.88;;;10.00;90.60;;;;;;5116488;28;20035;-39
2022/10/02 23:08:33;;;;;;;15.15;4.35;;;9.90;90.70;;;;;;5098089;28;20475;-38
2022/10/02 23:11:14;;;;;;;24.45;5.22;;;9.80;90.80;;;;;;5082374;28;20028;-39
2022/10/02 23:13:45;;;;;;;10.55;3.50;;;9.80;91.10;;;;;;5097974;28;20023;-39
2022/10/02 23:16:34;;;;;;;19.75;5.60;;;9.80;91.10;;;;;;5098119;28;20027;-39
2022/10/02 23:19:35;;;;;;;13.52;3.42;;;9.70;91.20;;;;;;5097973;28;20417;-42
2022/10/02 23:22:16;;;;;;;21.20;4.50;;;9.60;91.30;;;;;;5115940;28;20111;-38
2022/10/02 23:25:14;;;;;;;16.65;3.53;;;9.70;91.60;;;;;;5115740;28;20429;-39
2022/10/02 23:27:49;;;;;;;16.67;5.35;;;9.60;91.60;;;;;;5080960;28;20052;-39
2022/10/02 23:30:20;;;;;;;17.45;4.55;;;9.50;91.70;;;;;;5115483;28;20019;-38
2022/10/02 23:33:04;;;;;;;11.23;3.65;;;9.50;91.80;;;;;;5115408;28;20050;-38
2022/10/02 23:35:36;;;;;;;22.42;4.97;;;9.40;91.80;;;;;;5097241;28;20458;-41
2022/10/02 23:38:25;;;;;;;15.63;5.40;;;9.40;91.90;;;;;;5115342;28;20115;-39
2022/10/02 23:44:16;;;;;;;16.45;4.35;;;9.30;92.10;;;;;;5115905;28;20451;-39
2022/10/02 23:47:01;;;;;;;19.00;4.85;;;9.30;92.30;;;;;;5115164;28;20019;-38
2022/10/02 23:49:40;;;;;;;23.63;4.68;;;9.40;92.20;;;;;;5096932;28;20055;-37
2022/10/02 23:52:30;;;;;;;19.98;4.70;;;9.40;92.30;;;;;;5114914;28;20020;-38
2022/10/02 23:55:10;;;;;;;27.17;5.82;;;9.40;92.40;;;;;;5114934;28;20024;-38
2022/10/02 23:57:45;;;;;;;14.00;5.15;;;9.40;92.30;;;;;;5115017;28;20055;-38
